sensor_id;sensor_type;location;lat;lon;timestamp;temperature;humidity
3986;DHT22;2007;48.750;9.278;2023-09-12T00:00:37;25.60;57.20
3986;DHT22;2007;48.750;9.278;2023-09-12T00:03:06;25.60;57.20
3986;DHT22;2007;48.750;9.278;2023-09-12T00:05:34;25.60;57.20
3986;DHT22;2007;48.750;9.278;2023-09-12T00:08:02;25.60;57.20
3986;DHT22;2007;48.750;9.278;2023-09-12T00:10:30;25.60;57.20
3986;DHT22;2007;48.750;9.278;2023-09-12T00:12:58;25.60;57.30
3986;DHT22;2007;48.750;9.278;2023-09-12T00:15:29;25.60;57.30
3986;DHT22;2007;48.750;9.278;2023-09-12T00:17:57;25.60;57.20
3986;DHT22;2007;48.750;9.278;2023-09-12T00:20:26;25.60;57.20
3986;DHT22;2007;48.750;9.278;2023-09-12T00:22:54;25.60;57.20
3986;DHT22;2007;48.750;9.278;2023-09-12T00:25:22;25.60;57.20
3986;DHT22;2007;48.750;9.278;2023-09-12T00:27:50;25.60;57.20
3986;DHT22;2007;48.750;9.278;2023-09-12T00:30:18;25.60;57.20
3986;DHT22;2007;48.750;9.278;2023-09-12T00:32:46;25.60;57.20
3986;DHT22;2007;48.750;9.278;2023-09-12T00:35:14;25.60;57.30
3986;DHT22;2007;48.750;9.278;2023-09-12T00:37:43;25.60;57.20
3986;DHT22;2007;48.750;9.278;2023-09-12T00:40:11;25.60;57.30
3986;DHT22;2007;48.750;9.278;2023-09-12T00:42:39;25.60;57.20
3986;DHT22;2007;48.750;9.278;2023-09-12T00:45:08;25.60;57.20
3986;DHT22;2007;48.750;9.278;2023-09-12T00:47:36;25.60;57.20
3986;DHT22;2007;48.750;9.278;2023-09-12T00:50:05;25.60;57.20
3986;DHT22;2007;48.750;9.278;2023-09-12T00:52:34;25.60;57.20
3986;DHT22;2007;48.750;9.278;2023-09-12T00:55:06;25.60;57.20
3986;DHT22;2007;48.750;9.278;2023-09-12T00:57:34;25.60;57.20
3986;DHT22;2007;48.750;9.278;2023-09-12T01:00:05;25.60;57.20
3986;DHT22;2007;48.750;9.278;2023-09-12T01:02:38;25.60;57.20
3986;DHT22;2007;48.750;9.278;2023-09-12T01:05:07;25.60;57.20
3986;DHT22;2007;48.750;9.278;2023-09-12T01:07:37;25.60;57.30
3986;DHT22;2007;48.750;9.278;2023-09-12T01:10:08;25.60;57.20
3986;DHT22;2007;48.750;9.278;2023-09-12T01:12:36;25.60;57.20
3986;DHT22;2007;48.750;9.278;2023-09-12T01:15:05;25.60;57.30
3986;DHT22;2007;48.750;9.278;2023-09-12T01:17:41;25.60;57.30
3986;DHT22;2007;48.750;9.278;2023-09-12T01:20:14;25.60;57.30
3986;DHT22;2007;48.750;9.278;2023-09-12T01:23:08;25.60;57.30
3986;DHT22;2007;48.750;9.278;2023-09-12T01:28:45;25.60;57.20
3986;DHT22;2007;48.750;9.278;2023-09-12T01:31:19;25.60;57.20
3986;DHT22;2007;48.750;9.278;2023-09-12T01:33:48;25.60;57.20
3986;DHT22;2007;48.750;9.278;2023-09-12T01:36:16;25.60;57.20
3986;DHT22;2007;48.750;9.278;2023-09-12T01:38:44;25.60;57.30
3986;DHT22;2007;48.750;9.278;2023-09-12T01:41:12;25.60;57.30
3986;DHT22;2007;48.750;9.278;2023-09-12T01:43:41;25.60;57.20
3986;DHT22;2007;48.750;9.278;2023-09-12T01:46:12;25.60;57.30
3986;DHT22;2007;48.750;9.278;2023-09-12T01:48:41;25.60;57.20
3986;DHT22;2007;48.750;9.278;2023-09-12T01:51:11;25.60;57.30
3986;DHT22;2007;48.750;9.278;2023-09-12T01:53:39;25.60;57.20
3986;DHT22;2007;48.750;9.278;2023-09-12T01:56:09;25.60;57.20
3986;DHT22;2007;48.750;9.278;2023-09-12T01:58:37;25.60;57.20
3986;DHT22;2007;48.750;9.278;2023-09-12T02:01:05;25.60;57.20
3986;DHT22;2007;48.750;9.278;2023-09-12T02:03:35;25.60;57.20
3986;DHT22;2007;48.750;9.278;2023-09-12T02:06:03;25.60;57.20
3986;DHT22;2007;48.750;9.278;2023-09-12T02:08:30;25.60;57.30
3986;DHT22;2007;48.750;9.278;2023-09-12T02:10:58;25.60;57.30
3986;DHT22;2007;48.750;9.278;2023-09-12T02:13:26;25.60;57.30
3986;DHT22;2007;48.750;9.278;2023-09-12T02:15:59;25.60;57.20
3986;DHT22;2007;48.750;9.278;2023-09-12T02:18:27;25.60;57.90
3986;DHT22;2007;48.750;9.278;2023-09-12T02:20:58;25.60;57.30
3986;DHT22;2007;48.750;9.278;2023-09-12T02:23:26;25.60;57.20
3986;DHT22;2007;48.750;9.278;2023-09-12T02:25:55;25.60;57.30
3986;DHT22;2007;48.750;9.278;2023-09-12T02:28:23;25.60;57.30
3986;DHT22;2007;48.750;9.278;2023-09-12T02:30:51;25.60;57.20
3986;DHT22;2007;48.750;9.278;2023-09-12T02:33:19;25.60;57.30
3986;DHT22;2007;48.750;9.278;2023-09-12T02:35:48;25.60;57.20
3986;DHT22;2007;48.750;9.278;2023-09-12T02:38:17;25.60;57.20
3986;DHT22;2007;48.750;9.278;2023-09-12T02:40:45;25.60;57.30
3986;DHT22;2007;48.750;9.278;2023-09-12T02:43:13;25.60;57.30
3986;DHT22;2007;48.750;9.278;2023-09-12T02:45:41;25.60;57.30
3986;DHT22;2007;48.750;9.278;2023-09-12T02:48:10;25.60;57.30
3986;DHT22;2007;48.750;9.278;2023-09-12T02:50:38;25.60;57.30
3986;DHT22;2007;48.750;9.278;2023-09-12T02:53:06;25.60;57.30
3986;DHT22;2007;48.750;9.278;2023-09-12T02:55:39;25.50;57.20
3986;DHT22;2007;48.750;9.278;2023-09-12T02:58:07;25.60;57.30
3986;DHT22;2007;48.750;9.278;2023-09-12T03:00:38;25.50;57.20
3986;DHT22;2007;48.750;9.278;2023-09-12T03:03:06;25.50;57.20
3986;DHT22;2007;48.750;9.278;2023-09-12T03:05:36;25.50;57.20
3986;DHT22;2007;48.750;9.278;2023-09-12T03:08:04;25.50;57.20
3986;DHT22;2007;48.750;9.278;2023-09-12T03:10:32;25.50;57.20
3986;DHT22;2007;48.750;9.278;2023-09-12T03:13:01;25.60;57.20
3986;DHT22;2007;48.750;9.278;2023-09-12T03:15:29;25.50;57.20
3986;DHT22;2007;48.750;9.278;2023-09-12T03:17:57;25.50;57.20
3986;DHT22;2007;48.750;9.278;2023-09-12T03:20:25;25.50;57.80
3986;DHT22;2007;48.750;9.278;2023-09-12T03:22:53;25.50;57.20
3986;DHT22;2007;48.750;9.278;2023-09-12T03:25:21;25.50;57.20
3986;DHT22;2007;48.750;9.278;2023-09-12T03:27:49;25.50;57.20
3986;DHT22;2007;48.750;9.278;2023-09-12T03:30:20;25.50;57.20
3986;DHT22;2007;48.750;9.278;2023-09-12T03:32:48;25.50;57.20
3986;DHT22;2007;48.750;9.278;2023-09-12T03:35:16;25.50;57.20
3986;DHT22;2007;48.750;9.278;2023-09-12T03:37:44;25.50;57.20
3986;DHT22;2007;48.750;9.278;2023-09-12T03:40:12;25.50;57.20
3986;DHT22;2007;48.750;9.278;2023-09-12T03:42:40;25.50;57.20
3986;DHT22;2007;48.750;9.278;2023-09-12T03:45:09;25.50;57.20
3986;DHT22;2007;48.750;9.278;2023-09-12T03:47:39;25.50;57.20
3986;DHT22;2007;48.750;9.278;2023-09-12T03:50:07;25.50;57.20
3986;DHT22;2007;48.750;9.278;2023-09-12T03:52:35;25.50;57.20
3986;DHT22;2007;48.750;9.278;2023-09-12T03:55:04;25.50;57.20
3986;DHT22;2007;48.750;9.278;2023-09-12T03:57:32;25.50;57.20
3986;DHT22;2007;48.750;9.278;2023-09-12T04:00:00;25.50;57.20
3986;DHT22;2007;48.750;9.278;2023-09-12T04:02:30;25.50;57.20
3986;DHT22;2007;48.750;9.278;2023-09-12T04:05:00;25.50;57.20
3986;DHT22;2007;48.750;9.278;2023-09-12T04:07:28;25.50;57.20
3986;DHT22;2007;48.750;9.278;2023-09-12T04:09:56;25.50;57.20
3986;DHT22;2007;48.750;9.278;2023-09-12T04:12:24;25.50;57.20
3986;DHT22;2007;48.750;9.278;2023-09-12T04:14:52;25.50;57.20
3986;DHT22;2007;48.750;9.278;2023-09-12T04:17:21;25.50;57.20
3986;DHT22;2007;48.750;9.278;2023-09-12T04:19:49;25.50;57.90
3986;DHT22;2007;48.750;9.278;2023-09-12T04:22:18;25.50;57.20
3986;DHT22;2007;48.750;9.278;2023-09-12T04:24:49;25.50;57.20
3986;DHT22;2007;48.750;9.278;2023-09-12T04:27:17;25.50;57.20
3986;DHT22;2007;48.750;9.278;2023-09-12T04:29:45;25.50;57.20
3986;DHT22;2007;48.750;9.278;2023-09-12T04:32:13;25.50;57.20
3986;DHT22;2007;48.750;9.278;2023-09-12T04:34:43;25.50;57.20
3986;DHT22;2007;48.750;9.278;2023-09-12T04:37:11;25.50;57.20
3986;DHT22;2007;48.750;9.278;2023-09-12T04:39:40;25.50;57.20
3986;DHT22;2007;48.750;9.278;2023-09-12T04:42:08;25.50;57.20
3986;DHT22;2007;48.750;9.278;2023-09-12T04:44:36;25.50;57.20
3986;DHT22;2007;48.750;9.278;2023-09-12T04:47:04;25.50;57.20
3986;DHT22;2007;48.750;9.278;2023-09-12T04:49:32;25.40;57.10
3986;DHT22;2007;48.750;9.278;2023-09-12T04:52:00;25.50;57.20
3986;DHT22;2007;48.750;9.278;2023-09-12T04:54:28;25.50;57.20
3986;DHT22;2007;48.750;9.278;2023-09-12T04:56:57;25.50;57.20
3986;DHT22;2007;48.750;9.278;2023-09-12T04:59:25;25.40;57.10
3986;DHT22;2007;48.750;9.278;2023-09-12T05:01:53;25.40;57.10
3986;DHT22;2007;48.750;9.278;2023-09-12T05:04:21;25.50;57.20
3986;DHT22;2007;48.750;9.278;2023-09-12T05:06:49;25.40;57.10
3986;DHT22;2007;48.750;9.278;2023-09-12T05:09:17;25.40;57.10
3986;DHT22;2007;48.750;9.278;2023-09-12T05:11:45;25.40;57.10
3986;DHT22;2007;48.750;9.278;2023-09-12T05:14:15;25.40;57.10
3986;DHT22;2007;48.750;9.278;2023-09-12T05:16:42;25.40;57.10
3986;DHT22;2007;48.750;9.278;2023-09-12T05:19:10;25.40;57.10
3986;DHT22;2007;48.750;9.278;2023-09-12T05:21:39;25.40;57.10
3986;DHT22;2007;48.750;9.278;2023-09-12T05:24:07;25.50;57.20
3986;DHT22;2007;48.750;9.278;2023-09-12T05:26:35;25.50;57.20
3986;DHT22;2007;48.750;9.278;2023-09-12T05:29:03;25.40;57.10
3986;DHT22;2007;48.750;9.278;2023-09-12T05:31:33;25.40;57.10
3986;DHT22;2007;48.750;9.278;2023-09-12T05:34:01;25.40;57.10
3986;DHT22;2007;48.750;9.278;2023-09-12T05:36:29;25.40;57.10
3986;DHT22;2007;48.750;9.278;2023-09-12T05:38:57;25.40;57.10
3986;DHT22;2007;48.750;9.278;2023-09-12T05:41:26;25.40;57.10
3986;DHT22;2007;48.750;9.278;2023-09-12T05:43:54;25.40;57.10
3986;DHT22;2007;48.750;9.278;2023-09-12T05:46:22;25.40;57.10
3986;DHT22;2007;48.750;9.278;2023-09-12T05:48:51;25.40;57.10
3986;DHT22;2007;48.750;9.278;2023-09-12T05:51:19;25.40;57.10
3986;DHT22;2007;48.750;9.278;2023-09-12T05:53:47;25.40;57.10
3986;DHT22;2007;48.750;9.278;2023-09-12T05:56:16;25.40;57.10
3986;DHT22;2007;48.750;9.278;2023-09-12T05:58:44;25.40;57.10
3986;DHT22;2007;48.750;9.278;2023-09-12T06:01:12;25.40;57.10
3986;DHT22;2007;48.750;9.278;2023-09-12T06:03:41;25.40;57.10
3986;DHT22;2007;48.750;9.278;2023-09-12T06:06:10;25.40;57.10
3986;DHT22;2007;48.750;9.278;2023-09-12T06:08:38;25.40;57.10
3986;DHT22;2007;48.750;9.278;2023-09-12T06:11:07;25.40;57.10
3986;DHT22;2007;48.750;9.278;2023-09-12T06:13:35;25.40;57.10
3986;DHT22;2007;48.750;9.278;2023-09-12T06:16:04;25.40;57.20
3986;DHT22;2007;48.750;9.278;2023-09-12T06:18:32;25.40;57.10
3986;DHT22;2007;48.750;9.278;2023-09-12T06:21:01;25.40;57.10
3986;DHT22;2007;48.750;9.278;2023-09-12T06:23:32;25.40;57.80
3986;DHT22;2007;48.750;9.278;2023-09-12T06:26:00;25.40;57.10
3986;DHT22;2007;48.750;9.278;2023-09-12T06:28:29;25.40;57.20
3986;DHT22;2007;48.750;9.278;2023-09-12T06:30:58;25.40;57.20
3986;DHT22;2007;48.750;9.278;2023-09-12T06:33:26;25.40;57.20
3986;DHT22;2007;48.750;9.278;2023-09-12T06:35:55;25.40;57.20
3986;DHT22;2007;48.750;9.278;2023-09-12T06:38:23;25.40;57.20
3986;DHT22;2007;48.750;9.278;2023-09-12T06:40:52;25.40;57.20
3986;DHT22;2007;48.750;9.278;2023-09-12T06:43:20;25.40;57.20
3986;DHT22;2007;48.750;9.278;2023-09-12T06:45:48;25.40;57.20
3986;DHT22;2007;48.750;9.278;2023-09-12T06:48:17;25.40;57.20
3986;DHT22;2007;48.750;9.278;2023-09-12T06:50:45;25.40;57.20
3986;DHT22;2007;48.750;9.278;2023-09-12T06:53:18;25.40;57.20
3986;DHT22;2007;48.750;9.278;2023-09-12T06:55:46;25.40;57.20
3986;DHT22;2007;48.750;9.278;2023-09-12T06:58:15;25.30;57.20
3986;DHT22;2007;48.750;9.278;2023-09-12T07:00:43;25.30;57.20
3986;DHT22;2007;48.750;9.278;2023-09-12T07:03:11;25.30;57.20
3986;DHT22;2007;48.750;9.278;2023-09-12T07:05:43;25.30;57.20
3986;DHT22;2007;48.750;9.278;2023-09-12T07:08:11;25.30;57.80
3986;DHT22;2007;48.750;9.278;2023-09-12T07:10:44;25.30;57.20
3986;DHT22;2007;48.750;9.278;2023-09-12T07:13:12;25.30;57.20
3986;DHT22;2007;48.750;9.278;2023-09-12T07:15:41;25.30;57.20
3986;DHT22;2007;48.750;9.278;2023-09-12T07:18:09;25.30;57.20
3986;DHT22;2007;48.750;9.278;2023-09-12T07:20:37;25.30;57.20
3986;DHT22;2007;48.750;9.278;2023-09-12T07:23:05;25.30;57.20
3986;DHT22;2007;48.750;9.278;2023-09-12T07:25:37;25.40;57.30
3986;DHT22;2007;48.750;9.278;2023-09-12T07:28:06;25.30;57.20
3986;DHT22;2007;48.750;9.278;2023-09-12T07:30:34;25.30;57.20
3986;DHT22;2007;48.750;9.278;2023-09-12T07:33:05;25.30;57.20
3986;DHT22;2007;48.750;9.278;2023-09-12T07:35:33;25.30;57.20
3986;DHT22;2007;48.750;9.278;2023-09-12T07:38:01;25.30;57.20
3986;DHT22;2007;48.750;9.278;2023-09-12T07:40:29;25.30;57.20
3986;DHT22;2007;48.750;9.278;2023-09-12T07:42:57;25.30;57.20
3986;DHT22;2007;48.750;9.278;2023-09-12T07:45:25;25.30;57.20
3986;DHT22;2007;48.750;9.278;2023-09-12T07:47:54;25.30;57.20
3986;DHT22;2007;48.750;9.278;2023-09-12T07:50:24;25.30;57.20
3986;DHT22;2007;48.750;9.278;2023-09-12T07:52:52;25.30;57.20
3986;DHT22;2007;48.750;9.278;2023-09-12T07:55:23;25.30;57.30
3986;DHT22;2007;48.750;9.278;2023-09-12T07:57:51;25.30;57.20
3986;DHT22;2007;48.750;9.278;2023-09-12T08:00:19;25.30;57.20
3986;DHT22;2007;48.750;9.278;2023-09-12T08:02:47;25.30;57.20
3986;DHT22;2007;48.750;9.278;2023-09-12T08:05:17;25.30;57.20
3986;DHT22;2007;48.750;9.278;2023-09-12T08:07:47;25.30;57.20
3986;DHT22;2007;48.750;9.278;2023-09-12T08:10:15;25.30;57.20
3986;DHT22;2007;48.750;9.278;2023-09-12T08:12:43;25.30;57.20
3986;DHT22;2007;48.750;9.278;2023-09-12T08:15:11;25.30;57.30
3986;DHT22;2007;48.750;9.278;2023-09-12T08:17:39;25.30;57.20
3986;DHT22;2007;48.750;9.278;2023-09-12T08:20:08;25.30;57.20
3986;DHT22;2007;48.750;9.278;2023-09-12T08:22:37;25.30;57.20
3986;DHT22;2007;48.750;9.278;2023-09-12T08:25:07;25.30;57.20
3986;DHT22;2007;48.750;9.278;2023-09-12T08:27:36;25.30;57.20
3986;DHT22;2007;48.750;9.278;2023-09-12T08:30:05;25.30;57.20
3986;DHT22;2007;48.750;9.278;2023-09-12T08:32:33;25.30;57.20
3986;DHT22;2007;48.750;9.278;2023-09-12T08:35:01;25.30;57.20
3986;DHT22;2007;48.750;9.278;2023-09-12T08:37:30;25.30;57.20
3986;DHT22;2007;48.750;9.278;2023-09-12T08:39:58;25.30;57.30
3986;DHT22;2007;48.750;9.278;2023-09-12T08:42:27;25.30;57.20
3986;DHT22;2007;48.750;9.278;2023-09-12T08:44:56;25.30;57.20
3986;DHT22;2007;48.750;9.278;2023-09-12T08:47:25;25.30;57.30
3986;DHT22;2007;48.750;9.278;2023-09-12T08:49:54;25.30;57.20
3986;DHT22;2007;48.750;9.278;2023-09-12T08:52:23;25.30;57.20
3986;DHT22;2007;48.750;9.278;2023-09-12T08:54:51;25.30;57.20
3986;DHT22;2007;48.750;9.278;2023-09-12T08:57:19;25.30;57.30
3986;DHT22;2007;48.750;9.278;2023-09-12T08:59:50;25.30;57.20
3986;DHT22;2007;48.750;9.278;2023-09-12T09:02:18;25.30;57.20
3986;DHT22;2007;48.750;9.278;2023-09-12T09:04:47;25.30;57.30
3986;DHT22;2007;48.750;9.278;2023-09-12T09:07:19;25.30;57.30
3986;DHT22;2007;48.750;9.278;2023-09-12T09:09:48;25.30;57.30
3986;DHT22;2007;48.750;9.278;2023-09-12T09:12:19;25.30;57.30
3986;DHT22;2007;48.750;9.278;2023-09-12T09:14:48;25.30;57.20
3986;DHT22;2007;48.750;9.278;2023-09-12T09:17:16;25.20;57.20
3986;DHT22;2007;48.750;9.278;2023-09-12T09:20:01;25.30;57.20
3986;DHT22;2007;48.750;9.278;2023-09-12T09:22:32;25.30;57.20
3986;DHT22;2007;48.750;9.278;2023-09-12T09:25:10;25.30;57.30
3986;DHT22;2007;48.750;9.278;2023-09-12T09:27:39;25.30;57.20
3986;DHT22;2007;48.750;9.278;2023-09-12T09:30:10;25.30;57.30
3986;DHT22;2007;48.750;9.278;2023-09-12T09:32:38;25.30;57.30
3986;DHT22;2007;48.750;9.278;2023-09-12T09:35:07;25.30;57.30
3986;DHT22;2007;48.750;9.278;2023-09-12T09:37:37;25.20;57.20
3986;DHT22;2007;48.750;9.278;2023-09-12T09:40:06;25.20;57.20
3986;DHT22;2007;48.750;9.278;2023-09-12T09:42:35;25.20;57.20
3986;DHT22;2007;48.750;9.278;2023-09-12T09:45:03;25.20;57.20
3986;DHT22;2007;48.750;9.278;2023-09-12T09:47:33;25.20;57.20
3986;DHT22;2007;48.750;9.278;2023-09-12T09:50:01;25.20;57.30
3986;DHT22;2007;48.750;9.278;2023-09-12T09:52:29;25.20;57.20
3986;DHT22;2007;48.750;9.278;2023-09-12T09:54:57;25.20;57.30
3986;DHT22;2007;48.750;9.278;2023-09-12T09:57:26;25.20;57.30
3986;DHT22;2007;48.750;9.278;2023-09-12T09:59:54;25.20;57.30
3986;DHT22;2007;48.750;9.278;2023-09-12T10:02:23;25.20;57.30
3986;DHT22;2007;48.750;9.278;2023-09-12T10:04:55;25.20;57.30
3986;DHT22;2007;48.750;9.278;2023-09-12T10:07:27;25.20;57.30
3986;DHT22;2007;48.750;9.278;2023-09-12T10:09:57;25.20;57.30
3986;DHT22;2007;48.750;9.278;2023-09-12T10:12:25;25.20;57.30
3986;DHT22;2007;48.750;9.278;2023-09-12T10:14:56;25.20;57.30
3986;DHT22;2007;48.750;9.278;2023-09-12T10:17:30;25.20;57.30
3986;DHT22;2007;48.750;9.278;2023-09-12T10:20:03;25.20;57.30
3986;DHT22;2007;48.750;9.278;2023-09-12T10:22:38;25.20;57.30
3986;DHT22;2007;48.750;9.278;2023-09-12T10:25:08;25.20;57.30
3986;DHT22;2007;48.750;9.278;2023-09-12T10:27:36;25.20;57.30
3986;DHT22;2007;48.750;9.278;2023-09-12T10:30:05;25.20;57.30
3986;DHT22;2007;48.750;9.278;2023-09-12T10:32:35;25.20;57.30
3986;DHT22;2007;48.750;9.278;2023-09-12T10:35:06;25.20;57.30
3986;DHT22;2007;48.750;9.278;2023-09-12T10:37:38;25.20;57.30
3986;DHT22;2007;48.750;9.278;2023-09-12T10:40:09;25.20;57.30
3986;DHT22;2007;48.750;9.278;2023-09-12T10:42:39;25.20;57.30
3986;DHT22;2007;48.750;9.278;2023-09-12T10:45:10;25.20;57.30
3986;DHT22;2007;48.750;9.278;2023-09-12T10:47:38;25.20;57.30
3986;DHT22;2007;48.750;9.278;2023-09-12T10:50:08;25.20;57.30
3986;DHT22;2007;48.750;9.278;2023-09-12T10:52:36;25.20;57.40
3986;DHT22;2007;48.750;9.278;2023-09-12T10:55:08;25.20;57.40
3986;DHT22;2007;48.750;9.278;2023-09-12T10:58:00;25.20;57.30
3986;DHT22;2007;48.750;9.278;2023-09-12T11:00:30;25.20;57.30
3986;DHT22;2007;48.750;9.278;2023-09-12T11:03:01;25.20;57.40
3986;DHT22;2007;48.750;9.278;2023-09-12T11:05:53;25.20;57.40
3986;DHT22;2007;48.750;9.278;2023-09-12T11:08:22;25.20;57.40
3986;DHT22;2007;48.750;9.278;2023-09-12T11:11:17;25.20;57.40
3986;DHT22;2007;48.750;9.278;2023-09-12T11:13:46;25.20;57.40
3986;DHT22;2007;48.750;9.278;2023-09-12T11:16:16;25.20;57.40
3986;DHT22;2007;48.750;9.278;2023-09-12T11:19:13;25.20;57.40
3986;DHT22;2007;48.750;9.278;2023-09-12T11:21:43;25.20;57.40
3986;DHT22;2007;48.750;9.278;2023-09-12T11:24:12;25.20;57.40
3986;DHT22;2007;48.750;9.278;2023-09-12T11:26:56;25.20;57.40
3986;DHT22;2007;48.750;9.278;2023-09-12T11:29:29;25.20;57.40
3986;DHT22;2007;48.750;9.278;2023-09-12T11:31:58;25.20;57.40
3986;DHT22;2007;48.750;9.278;2023-09-12T11:34:30;25.20;57.40
3986;DHT22;2007;48.750;9.278;2023-09-12T11:37:05;25.20;57.40
3986;DHT22;2007;48.750;9.278;2023-09-12T11:39:34;25.20;57.40
3986;DHT22;2007;48.750;9.278;2023-09-12T11:42:04;25.20;57.40
3986;DHT22;2007;48.750;9.278;2023-09-12T11:44:35;25.20;57.40
3986;DHT22;2007;48.750;9.278;2023-09-12T11:47:03;25.20;57.40
3986;DHT22;2007;48.750;9.278;2023-09-12T11:49:37;25.20;57.40
3986;DHT22;2007;48.750;9.278;2023-09-12T11:52:09;25.20;57.40
3986;DHT22;2007;48.750;9.278;2023-09-12T11:54:40;25.20;57.40
3986;DHT22;2007;48.750;9.278;2023-09-12T11:57:09;25.20;57.40
3986;DHT22;2007;48.750;9.278;2023-09-12T11:59:38;25.20;57.40
3986;DHT22;2007;48.750;9.278;2023-09-12T12:02:07;25.20;57.40
3986;DHT22;2007;48.750;9.278;2023-09-12T12:04:36;25.20;57.40
3986;DHT22;2007;48.750;9.278;2023-09-12T12:07:05;25.20;57.40
3986;DHT22;2007;48.750;9.278;2023-09-12T12:09:34;25.20;57.40
3986;DHT22;2007;48.750;9.278;2023-09-12T12:12:04;25.20;57.40
3986;DHT22;2007;48.750;9.278;2023-09-12T12:14:34;25.20;57.40
3986;DHT22;2007;48.750;9.278;2023-09-12T12:17:06;25.20;57.40
3986;DHT22;2007;48.750;9.278;2023-09-12T12:19:35;25.20;57.40
3986;DHT22;2007;48.750;9.278;2023-09-12T12:22:04;25.20;57.40
3986;DHT22;2007;48.750;9.278;2023-09-12T12:24:39;25.20;57.40
3986;DHT22;2007;48.750;9.278;2023-09-12T12:27:08;25.20;57.40
3986;DHT22;2007;48.750;9.278;2023-09-12T12:29:38;25.20;57.40
3986;DHT22;2007;48.750;9.278;2023-09-12T12:32:07;25.20;57.40
3986;DHT22;2007;48.750;9.278;2023-09-12T12:34:36;25.20;57.40
3986;DHT22;2007;48.750;9.278;2023-09-12T12:37:28;25.20;57.40
3986;DHT22;2007;48.750;9.278;2023-09-12T12:40:00;25.20;57.40
3986;DHT22;2007;48.750;9.278;2023-09-12T12:42:33;25.20;57.50
3986;DHT22;2007;48.750;9.278;2023-09-12T12:45:16;25.20;57.40
3986;DHT22;2007;48.750;9.278;2023-09-12T12:47:44;25.20;57.40
3986;DHT22;2007;48.750;9.278;2023-09-12T12:50:13;25.20;57.40
3986;DHT22;2007;48.750;9.278;2023-09-12T12:52:42;25.20;57.40
3986;DHT22;2007;48.750;9.278;2023-09-12T12:55:12;25.20;57.40
3986;DHT22;2007;48.750;9.278;2023-09-12T12:57:42;25.20;57.50
3986;DHT22;2007;48.750;9.278;2023-09-12T13:00:12;25.20;57.50
3986;DHT22;2007;48.750;9.278;2023-09-12T13:02:42;25.20;57.50
3986;DHT22;2007;48.750;9.278;2023-09-12T13:05:20;25.20;57.50
3986;DHT22;2007;48.750;9.278;2023-09-12T13:07:49;25.20;57.40
3986;DHT22;2007;48.750;9.278;2023-09-12T13:10:19;25.20;57.40
3986;DHT22;2007;48.750;9.278;2023-09-12T13:12:47;25.20;57.40
3986;DHT22;2007;48.750;9.278;2023-09-12T13:15:16;25.20;57.40
3986;DHT22;2007;48.750;9.278;2023-09-12T13:17:47;25.20;57.40
3986;DHT22;2007;48.750;9.278;2023-09-12T13:20:16;25.20;57.50
3986;DHT22;2007;48.750;9.278;2023-09-12T13:22:44;25.20;57.50
3986;DHT22;2007;48.750;9.278;2023-09-12T13:25:12;25.20;57.50
3986;DHT22;2007;48.750;9.278;2023-09-12T13:27:42;25.20;57.50
3986;DHT22;2007;48.750;9.278;2023-09-12T13:30:11;25.20;57.50
3986;DHT22;2007;48.750;9.278;2023-09-12T13:32:39;25.20;57.50
3986;DHT22;2007;48.750;9.278;2023-09-12T13:35:07;25.20;57.50
3986;DHT22;2007;48.750;9.278;2023-09-12T13:37:35;25.20;57.50
3986;DHT22;2007;48.750;9.278;2023-09-12T13:40:04;25.20;57.50
3986;DHT22;2007;48.750;9.278;2023-09-12T13:42:34;25.20;57.40
3986;DHT22;2007;48.750;9.278;2023-09-12T13:45:04;25.20;57.40
3986;DHT22;2007;48.750;9.278;2023-09-12T13:47:33;25.20;57.50
3986;DHT22;2007;48.750;9.278;2023-09-12T13:50:01;25.20;57.50
3986;DHT22;2007;48.750;9.278;2023-09-12T13:52:29;25.20;57.50
3986;DHT22;2007;48.750;9.278;2023-09-12T13:54:57;25.20;57.50
3986;DHT22;2007;48.750;9.278;2023-09-12T13:57:25;25.20;57.50
3986;DHT22;2007;48.750;9.278;2023-09-12T13:59:53;25.20;57.40
3986;DHT22;2007;48.750;9.278;2023-09-12T14:02:22;25.20;57.50
3986;DHT22;2007;48.750;9.278;2023-09-12T14:04:51;25.20;57.50
3986;DHT22;2007;48.750;9.278;2023-09-12T14:07:35;25.20;57.50
3986;DHT22;2007;48.750;9.278;2023-09-12T14:10:04;25.30;57.50
3986;DHT22;2007;48.750;9.278;2023-09-12T14:12:33;25.20;57.40
3986;DHT22;2007;48.750;9.278;2023-09-12T14:15:01;25.20;57.40
3986;DHT22;2007;48.750;9.278;2023-09-12T14:17:36;25.30;57.50
3986;DHT22;2007;48.750;9.278;2023-09-12T14:20:13;25.20;57.40
3986;DHT22;2007;48.750;9.278;2023-09-12T14:22:43;25.20;57.50
3986;DHT22;2007;48.750;9.278;2023-09-12T14:25:12;25.30;57.50
3986;DHT22;2007;48.750;9.278;2023-09-12T14:27:42;25.30;57.50
3986;DHT22;2007;48.750;9.278;2023-09-12T14:30:12;25.30;57.50
3986;DHT22;2007;48.750;9.278;2023-09-12T14:32:42;25.30;57.50
3986;DHT22;2007;48.750;9.278;2023-09-12T14:35:10;25.30;57.50
3986;DHT22;2007;48.750;9.278;2023-09-12T14:37:38;25.30;57.50
3986;DHT22;2007;48.750;9.278;2023-09-12T14:40:07;25.30;57.50
3986;DHT22;2007;48.750;9.278;2023-09-12T14:42:35;25.30;57.50
3986;DHT22;2007;48.750;9.278;2023-09-12T14:45:04;25.30;57.50
3986;DHT22;2007;48.750;9.278;2023-09-12T14:47:33;25.30;57.50
3986;DHT22;2007;48.750;9.278;2023-09-12T14:50:02;25.30;57.50
3986;DHT22;2007;48.750;9.278;2023-09-12T14:52:31;25.30;57.50
3986;DHT22;2007;48.750;9.278;2023-09-12T14:55:01;25.30;57.60
3986;DHT22;2007;48.750;9.278;2023-09-12T14:57:30;25.30;57.50
3986;DHT22;2007;48.750;9.278;2023-09-12T14:59:58;25.30;57.50
3986;DHT22;2007;48.750;9.278;2023-09-12T15:02:27;25.30;57.50
3986;DHT22;2007;48.750;9.278;2023-09-12T15:04:58;25.30;57.50
3986;DHT22;2007;48.750;9.278;2023-09-12T15:07:28;25.30;57.50
3986;DHT22;2007;48.750;9.278;2023-09-12T15:09:57;25.30;57.50
3986;DHT22;2007;48.750;9.278;2023-09-12T15:12:25;25.30;57.50
3986;DHT22;2007;48.750;9.278;2023-09-12T15:14:53;25.30;57.50
3986;DHT22;2007;48.750;9.278;2023-09-12T15:17:21;25.30;57.50
3986;DHT22;2007;48.750;9.278;2023-09-12T15:19:49;25.30;57.50
3986;DHT22;2007;48.750;9.278;2023-09-12T15:22:17;25.30;57.50
3986;DHT22;2007;48.750;9.278;2023-09-12T15:24:46;25.30;57.60
3986;DHT22;2007;48.750;9.278;2023-09-12T15:27:14;25.30;57.50
3986;DHT22;2007;48.750;9.278;2023-09-12T15:29:42;25.30;57.50
3986;DHT22;2007;48.750;9.278;2023-09-12T15:32:10;25.30;57.60
3986;DHT22;2007;48.750;9.278;2023-09-12T15:34:38;25.30;57.50
3986;DHT22;2007;48.750;9.278;2023-09-12T15:37:07;25.30;57.50
3986;DHT22;2007;48.750;9.278;2023-09-12T15:39:49;25.30;57.50
3986;DHT22;2007;48.750;9.278;2023-09-12T15:42:17;25.30;57.50
3986;DHT22;2007;48.750;9.278;2023-09-12T15:45:02;25.30;57.50
3986;DHT22;2007;48.750;9.278;2023-09-12T15:47:30;25.30;57.50
3986;DHT22;2007;48.750;9.278;2023-09-12T15:49:59;25.30;57.50
3986;DHT22;2007;48.750;9.278;2023-09-12T15:52:27;25.40;57.60
3986;DHT22;2007;48.750;9.278;2023-09-12T15:54:56;25.30;57.50
3986;DHT22;2007;48.750;9.278;2023-09-12T15:57:24;25.30;57.50
3986;DHT22;2007;48.750;9.278;2023-09-12T15:59:52;25.40;57.60
3986;DHT22;2007;48.750;9.278;2023-09-12T16:02:20;25.30;57.50
3986;DHT22;2007;48.750;9.278;2023-09-12T16:04:48;25.30;57.50
3986;DHT22;2007;48.750;9.278;2023-09-12T16:07:16;25.30;57.50
3986;DHT22;2007;48.750;9.278;2023-09-12T16:09:44;25.30;57.50
3986;DHT22;2007;48.750;9.278;2023-09-12T16:12:15;25.40;57.60
3986;DHT22;2007;48.750;9.278;2023-09-12T16:14:43;25.30;57.50
3986;DHT22;2007;48.750;9.278;2023-09-12T16:17:11;25.40;58.20
3986;DHT22;2007;48.750;9.278;2023-09-12T16:19:39;25.30;57.50